Time;durP1;ratioP1;P1;durP2;ratioP2;P2;SDS_P1;SDS_P2;PMS_P1;PMS_P2;Temp;Humidity;BMP_temperature;BMP_pressure;BME280_temperature;BME280_humidity;BME280_pressure;Samples;Min_cycle;Max_cycle;Signal;HPM_P1;HPM_P2
2021/08/15 00:00:19;;;;;;;11.80;7.22;;;;;;;;;;5012008;28;20046;-58
2021/08/15 00:02:48;;;;;;;12.07;7.80;;;;;;;;;;4992097;28;20825;-58
2021/08/15 00:05:16;;;;;;;14.05;7.78;;;;;;;;;;5002948;28;20056;-58
2021/08/15 00:07:46;;;;;;;15.18;8.75;;;;;;;;;;5011759;28;20482;-58
2021/08/15 00:10:14;;;;;;;14.13;7.50;;;;;;;;;;5011990;28;20141;-58
2021/08/15 00:12:43;;;;;;;12.18;7.20;;;;;;;;;;5011585;28;20054;-58
2021/08/15 00:15:12;;;;;;;13.63;7.93;;;;;;;;;;5010719;28;20117;-58
2021/08/15 00:17:40;;;;;;;12.60;7.47;;;;;;;;;;5012102;28;20053;-59
2021/08/15 00:20:10;;;;;;;15.52;8.65;;;;;;;;;;5011669;28;20107;-59
2021/08/15 00:22:39;;;;;;;14.95;7.90;;;;;;;;;;5011562;28;20060;-58
2021/08/15 00:25:12;;;;;;;13.98;7.78;;;;;;;;;;5010688;28;20060;-58
2021/08/15 00:27:40;;;;;;;15.95;8.40;;;;;;;;;;5011288;28;20493;-58
2021/08/15 00:30:09;;;;;;;14.35;7.95;;;;;;;;;;5011136;28;20156;-58
2021/08/15 00:32:37;;;;;;;11.35;7.35;;;;;;;;;;5011222;28;20421;-58
2021/08/15 00:35:06;;;;;;;14.48;8.05;;;;;;;;;;5011123;28;20056;-59
2021/08/15 00:37:34;;;;;;;14.23;8.50;;;;;;;;;;5011662;28;20056;-60
2021/08/15 00:40:03;;;;;;;12.43;7.97;;;;;;;;;;5010793;28;20049;-58
2021/08/15 00:42:33;;;;;;;13.10;7.63;;;;;;;;;;5011511;28;20060;-60
2021/08/15 00:45:02;;;;;;;12.23;7.80;;;;;;;;;;5009931;28;20058;-58
2021/08/15 00:47:31;;;;;;;11.75;7.15;;;;;;;;;;5011122;28;20060;-58
2021/08/15 00:49:59;;;;;;;13.40;7.55;;;;;;;;;;5010951;28;20133;-58
2021/08/15 00:52:28;;;;;;;12.27;7.90;;;;;;;;;;5011360;28;20049;-58
2021/08/15 00:54:57;;;;;;;13.55;7.32;;;;;;;;;;5010297;28;20405;-58
2021/08/15 00:57:26;;;;;;;11.77;7.15;;;;;;;;;;5008236;28;20056;-58
2021/08/15 00:59:56;;;;;;;12.77;7.30;;;;;;;;;;5010768;28;20068;-59
2021/08/15 01:02:25;;;;;;;12.77;7.10;;;;;;;;;;5010771;28;20058;-58
2021/08/15 01:04:54;;;;;;;13.95;7.72;;;;;;;;;;5010182;28;20057;-58
2021/08/15 01:07:22;;;;;;;12.23;7.80;;;;;;;;;;5010930;28;20137;-58
2021/08/15 01:09:50;;;;;;;13.18;8.10;;;;;;;;;;5010092;28;20054;-58
2021/08/15 01:12:18;;;;;;;11.95;7.75;;;;;;;;;;5011448;28;20046;-58
2021/08/15 01:14:47;;;;;;;12.23;7.60;;;;;;;;;;5010558;28;20077;-58
2021/08/15 01:17:17;;;;;;;12.13;7.43;;;;;;;;;;5011111;28;20075;-58
2021/08/15 01:19:45;;;;;;;14.30;7.72;;;;;;;;;;5010996;28;20136;-58
2021/08/15 01:22:13;;;;;;;11.98;7.47;;;;;;;;;;5011218;28;20046;-59
2021/08/15 01:24:42;;;;;;;13.80;7.03;;;;;;;;;;5010466;28;20129;-58
2021/08/15 01:27:24;;;;;;;12.57;7.93;;;;;;;;;;5010902;28;20061;-57
2021/08/15 01:29:54;;;;;;;16.33;7.78;;;;;;;;;;5010718;28;20124;-59
2021/08/15 01:32:23;;;;;;;13.27;7.90;;;;;;;;;;5010722;28;20045;-58
2021/08/15 01:34:51;;;;;;;12.60;7.53;;;;;;;;;;5010001;28;20549;-58
2021/08/15 01:37:22;;;;;;;14.75;7.90;;;;;;;;;;5010709;28;20132;-58
2021/08/15 01:39:51;;;;;;;13.43;8.02;;;;;;;;;;5011591;28;20100;-58
2021/08/15 01:42:20;;;;;;;12.77;8.27;;;;;;;;;;5014088;28;20076;-58
2021/08/15 01:44:48;;;;;;;13.20;7.57;;;;;;;;;;5014267;28;20087;-58
2021/08/15 01:47:17;;;;;;;14.90;8.65;;;;;;;;;;5013890;28;20085;-58
2021/08/15 01:49:46;;;;;;;11.75;8.25;;;;;;;;;;5014221;28;20526;-58
2021/08/15 01:52:14;;;;;;;12.35;7.25;;;;;;;;;;5014464;28;20049;-58
2021/08/15 01:54:42;;;;;;;12.50;7.47;;;;;;;;;;5013598;28;20478;-58
2021/08/15 01:57:13;;;;;;;12.77;7.53;;;;;;;;;;5014053;28;20144;-58
2021/08/15 01:59:41;;;;;;;12.85;7.78;;;;;;;;;;5014200;28;20135;-58
2021/08/15 02:02:09;;;;;;;13.18;7.68;;;;;;;;;;5013953;28;20160;-59
2021/08/15 02:04:39;;;;;;;12.55;7.95;;;;;;;;;;5013395;28;20045;-58
2021/08/15 02:07:07;;;;;;;12.20;8.18;;;;;;;;;;5015027;28;20078;-58
2021/08/15 02:09:35;;;;;;;11.40;7.25;;;;;;;;;;5015479;28;20056;-59
2021/08/15 02:12:04;;;;;;;12.52;8.10;;;;;;;;;;5014400;28;20125;-58
2021/08/15 02:14:32;;;;;;;14.55;7.95;;;;;;;;;;5013796;28;20490;-58
2021/08/15 02:17:01;;;;;;;12.43;7.45;;;;;;;;;;5013559;28;20509;-58
2021/08/15 02:19:29;;;;;;;14.45;8.07;;;;;;;;;;5014342;28;20050;-58
2021/08/15 02:21:58;;;;;;;14.45;8.40;;;;;;;;;;5013646;28;20060;-58
2021/08/15 02:24:28;;;;;;;14.15;7.70;;;;;;;;;;5013383;28;20057;-58
2021/08/15 02:26:56;;;;;;;14.68;8.73;;;;;;;;;;5013619;28;20049;-58
2021/08/15 02:29:24;;;;;;;11.73;7.53;;;;;;;;;;5013922;28;20053;-58
2021/08/15 02:31:53;;;;;;;12.52;8.00;;;;;;;;;;5013287;28;20050;-58
2021/08/15 02:34:22;;;;;;;10.65;7.38;;;;;;;;;;5013136;28;20486;-57
2021/08/15 02:36:50;;;;;;;12.77;7.15;;;;;;;;;;5013256;28;20052;-58
2021/08/15 02:39:20;;;;;;;11.60;6.72;;;;;;;;;;5013747;28;20140;-58
2021/08/15 02:41:48;;;;;;;12.82;7.45;;;;;;;;;;5014390;28;20054;-58
2021/08/15 02:44:16;;;;;;;13.70;7.28;;;;;;;;;;5014672;28;20102;-58
2021/08/15 02:46:45;;;;;;;12.93;7.45;;;;;;;;;;5014324;28;20137;-58
2021/08/15 02:49:13;;;;;;;14.00;7.43;;;;;;;;;;5015512;28;20141;-58
2021/08/15 02:51:41;;;;;;;14.77;7.57;;;;;;;;;;5014435;28;20089;-58
2021/08/15 02:54:10;;;;;;;12.43;7.95;;;;;;;;;;5014221;28;20133;-59
2021/08/15 02:56:39;;;;;;;11.45;8.02;;;;;;;;;;5015452;28;20052;-60
2021/08/15 02:59:07;;;;;;;11.65;7.63;;;;;;;;;;5015481;28;20053;-59
2021/08/15 03:01:36;;;;;;;13.55;7.28;;;;;;;;;;5015013;28;20141;-58
2021/08/15 03:04:04;;;;;;;14.23;8.90;;;;;;;;;;5014762;28;20494;-58
2021/08/15 03:06:32;;;;;;;12.70;7.55;;;;;;;;;;5014570;28;20145;-59
2021/08/15 03:09:00;;;;;;;11.70;7.95;;;;;;;;;;5012791;28;20520;-59
2021/08/15 03:11:29;;;;;;;10.05;7.72;;;;;;;;;;5012808;28;20350;-58
2021/08/15 03:13:58;;;;;;;11.68;8.18;;;;;;;;;;5012706;28;20065;-58
2021/08/15 03:16:27;;;;;;;14.40;8.48;;;;;;;;;;5012881;28;20536;-57
2021/08/15 03:18:55;;;;;;;17.70;9.50;;;;;;;;;;5012983;28;20060;-58
2021/08/15 03:21:24;;;;;;;14.50;9.27;;;;;;;;;;5013070;28;20062;-58
2021/08/15 03:23:52;;;;;;;13.27;8.35;;;;;;;;;;5012415;28;21108;-58
2021/08/15 03:26:38;;;;;;;12.32;7.53;;;;;;;;;;2181318;28;10023865;-58
2021/08/15 03:29:08;;;;;;;16.77;9.18;;;;;;;;;;3629564;28;10001051;-58
2021/08/15 03:31:36;;;;;;;16.95;8.70;;;;;;;;;;5013059;28;20050;-58
2021/08/15 03:34:05;;;;;;;15.55;8.43;;;;;;;;;;5008310;28;20046;-59
2021/08/15 03:36:33;;;;;;;12.82;8.07;;;;;;;;;;4993061;28;20046;-58
2021/08/15 03:39:01;;;;;;;14.35;8.55;;;;;;;;;;4993334;28;20046;-58
2021/08/15 03:41:29;;;;;;;14.65;8.65;;;;;;;;;;4993222;28;20164;-58
2021/08/15 03:43:57;;;;;;;12.25;8.43;;;;;;;;;;4992660;28;20233;-58
2021/08/15 03:46:27;;;;;;;12.88;7.90;;;;;;;;;;4993631;28;20414;-58
2021/08/15 03:48:55;;;;;;;12.80;8.10;;;;;;;;;;4992808;28;20058;-58
2021/08/15 03:51:24;;;;;;;12.38;7.82;;;;;;;;;;4993268;28;20114;-58
2021/08/15 03:53:52;;;;;;;11.38;7.82;;;;;;;;;;4991938;28;20109;-59
2021/08/15 03:56:20;;;;;;;13.77;7.82;;;;;;;;;;4992259;28;20102;-58
2021/08/15 03:58:48;;;;;;;10.35;6.95;;;;;;;;;;4992678;28;20060;-58
2021/08/15 04:01:17;;;;;;;15.07;8.63;;;;;;;;;;4993037;28;20046;-58
2021/08/15 04:03:47;;;;;;;11.82;7.50;;;;;;;;;;4991812;28;20125;-58
2021/08/15 04:06:21;;;;;;;13.50;8.05;;;;;;;;;;4992515;28;20056;-58
2021/08/15 04:08:49;;;;;;;19.83;8.37;;;;;;;;;;4992640;28;20392;-58
2021/08/15 04:11:18;;;;;;;15.73;8.82;;;;;;;;;;4991782;28;20792;-58
2021/08/15 04:13:46;;;;;;;13.10;7.95;;;;;;;;;;4992293;28;20145;-58
2021/08/15 04:16:14;;;;;;;11.07;7.72;;;;;;;;;;4992294;28;20142;-58
2021/08/15 04:18:43;;;;;;;13.05;8.32;;;;;;;;;;4992443;28;20046;-58
2021/08/15 04:21:12;;;;;;;13.98;7.63;;;;;;;;;;4992963;28;20439;-59
2021/08/15 04:23:40;;;;;;;14.07;8.73;;;;;;;;;;4991139;28;20315;-59
2021/08/15 04:26:09;;;;;;;12.60;7.93;;;;;;;;;;4992158;28;20054;-59
2021/08/15 04:28:37;;;;;;;15.30;8.23;;;;;;;;;;4992124;28;20402;-58
2021/08/15 04:31:05;;;;;;;12.48;8.02;;;;;;;;;;4992383;28;20057;-58
2021/08/15 04:33:33;;;;;;;13.00;8.23;;;;;;;;;;4992133;28;20046;-58
2021/08/15 04:36:01;;;;;;;14.10;8.43;;;;;;;;;;5011758;28;20886;-58
2021/08/15 04:38:31;;;;;;;14.10;8.10;;;;;;;;;;5011628;28;20146;-59
2021/08/15 04:40:59;;;;;;;11.70;7.65;;;;;;;;;;5011435;28;20053;-58
2021/08/15 04:43:28;;;;;;;12.35;7.38;;;;;;;;;;5012048;28;20394;-58
2021/08/15 04:45:56;;;;;;;15.13;7.78;;;;;;;;;;5010938;28;20080;-57
2021/08/15 04:48:24;;;;;;;13.15;7.80;;;;;;;;;;5011424;28;20084;-58
2021/08/15 04:50:52;;;;;;;10.50;6.93;;;;;;;;;;5011035;28;20054;-58
2021/08/15 04:53:21;;;;;;;12.77;7.78;;;;;;;;;;5010680;28;20145;-57
2021/08/15 04:55:50;;;;;;;10.82;7.45;;;;;;;;;;5009977;28;20373;-59
2021/08/15 04:58:19;;;;;;;13.27;8.32;;;;;;;;;;5011098;28;20092;-57
2021/08/15 05:00:47;;;;;;;14.02;7.53;;;;;;;;;;5010581;28;20046;-57
2021/08/15 05:03:16;;;;;;;15.52;8.27;;;;;;;;;;5011051;28;20180;-58
2021/08/15 05:05:44;;;;;;;12.07;7.78;;;;;;;;;;5010540;28;20045;-58
2021/08/15 05:08:13;;;;;;;17.23;8.45;;;;;;;;;;5010482;28;20486;-58
2021/08/15 05:10:42;;;;;;;14.07;8.15;;;;;;;;;;5011072;28;20100;-59
2021/08/15 05:13:11;;;;;;;14.43;7.32;;;;;;;;;;5010388;28;20054;-58
2021/08/15 05:15:40;;;;;;;13.55;8.07;;;;;;;;;;5010128;28;20057;-59
2021/08/15 05:18:08;;;;;;;11.82;7.60;;;;;;;;;;5011263;28;20414;-58
2021/08/15 05:20:37;;;;;;;11.48;7.80;;;;;;;;;;5010582;28;20383;-58
2021/08/15 05:23:05;;;;;;;12.27;8.00;;;;;;;;;;5010695;28;20125;-58
2021/08/15 05:25:33;;;;;;;15.43;8.00;;;;;;;;;;5010315;28;20140;-58
2021/08/15 05:28:01;;;;;;;12.70;8.00;;;;;;;;;;5010519;28;20132;-58
2021/08/15 05:30:31;;;;;;;11.90;7.55;;;;;;;;;;5010693;28;20475;-59
2021/08/15 05:32:59;;;;;;;13.88;7.38;;;;;;;;;;5010154;28;20617;-59
2021/08/15 05:35:28;;;;;;;16.60;9.07;;;;;;;;;;5010385;28;20045;-58
2021/08/15 05:37:57;;;;;;;18.52;8.75;;;;;;;;;;5010361;28;20602;-58
2021/08/15 05:40:25;;;;;;;13.48;7.72;;;;;;;;;;5010291;28;20375;-58
2021/08/15 05:42:53;;;;;;;17.85;8.35;;;;;;;;;;5010860;28;20061;-57
2021/08/15 05:45:22;;;;;;;16.05;8.40;;;;;;;;;;5009778;28;20045;-59
2021/08/15 05:47:51;;;;;;;12.15;7.88;;;;;;;;;;5010132;28;20132;-59
2021/08/15 05:50:20;;;;;;;15.95;7.93;;;;;;;;;;5010407;28;20383;-58
2021/08/15 05:52:48;;;;;;;14.70;8.43;;;;;;;;;;5010190;28;20429;-58
2021/08/15 05:55:18;;;;;;;16.13;9.25;;;;;;;;;;5010181;28;20060;-58
2021/08/15 05:57:47;;;;;;;16.15;9.05;;;;;;;;;;4990667;28;20150;-58
2021/08/15 06:00:16;;;;;;;19.90;10.95;;;;;;;;;;4990805;28;20076;-58
2021/08/15 06:02:45;;;;;;;20.73;11.07;;;;;;;;;;5005106;28;20376;-58
2021/08/15 06:05:15;;;;;;;15.35;10.02;;;;;;;;;;5009870;28;20088;-57
2021/08/15 06:07:43;;;;;;;16.42;10.27;;;;;;;;;;5010529;28;20050;-58
2021/08/15 06:10:12;;;;;;;18.13;10.13;;;;;;;;;;5009877;28;20513;-58
2021/08/15 06:12:40;;;;;;;18.33;10.68;;;;;;;;;;5010452;28;20054;-60
2021/08/15 06:15:12;;;;;;;20.65;10.95;;;;;;;;;;5009734;28;20081;-59
2021/08/15 06:17:40;;;;;;;15.52;10.57;;;;;;;;;;5010310;28;20104;-59
2021/08/15 06:20:09;;;;;;;15.45;9.25;;;;;;;;;;5010026;28;20064;-59
2021/08/15 06:22:40;;;;;;;17.90;10.48;;;;;;;;;;5010413;28;20066;-58
2021/08/15 06:25:09;;;;;;;18.20;10.13;;;;;;;;;;5010079;28;20046;-57
2021/08/15 06:27:42;;;;;;;16.73;9.45;;;;;;;;;;5012474;28;20129;-58
2021/08/15 06:30:10;;;;;;;15.10;9.20;;;;;;;;;;5013990;28;20081;-58
2021/08/15 06:32:44;;;;;;;16.08;10.10;;;;;;;;;;5013541;28;20134;-58
2021/08/15 06:35:13;;;;;;;17.25;10.80;;;;;;;;;;5013636;28;20052;-58
2021/08/15 06:37:42;;;;;;;22.90;12.55;;;;;;;;;;5013722;28;20498;-59
2021/08/15 06:40:11;;;;;;;15.60;9.50;;;;;;;;;;5013372;28;20049;-58
2021/08/15 06:42:40;;;;;;;17.90;10.60;;;;;;;;;;5013682;28;20088;-59
2021/08/15 06:45:09;;;;;;;16.50;9.10;;;;;;;;;;5013219;28;20073;-58
2021/08/15 06:47:37;;;;;;;18.75;10.52;;;;;;;;;;5014041;28;20128;-58
2021/08/15 06:50:06;;;;;;;20.92;11.55;;;;;;;;;;5013424;28;20046;-57
2021/08/15 06:52:34;;;;;;;15.50;9.25;;;;;;;;;;5013642;28;20504;-58
2021/08/15 06:55:04;;;;;;;17.08;10.45;;;;;;;;;;5012790;28;20460;-59
2021/08/15 06:57:32;;;;;;;19.67;10.80;;;;;;;;;;5012271;28;20418;-58
2021/08/15 07:00:02;;;;;;;16.50;10.07;;;;;;;;;;5012949;28;20132;-58
2021/08/15 07:02:30;;;;;;;15.75;9.43;;;;;;;;;;5012713;28;20442;-58
2021/08/15 07:04:58;;;;;;;15.88;10.15;;;;;;;;;;5012358;28;20517;-57
2021/08/15 07:07:27;;;;;;;19.52;10.68;;;;;;;;;;5012845;28;20497;-58
2021/08/15 07:09:55;;;;;;;17.13;9.05;;;;;;;;;;5012764;28;20088;-58
2021/08/15 07:12:25;;;;;;;20.50;11.80;;;;;;;;;;5012851;28;20177;-58
2021/08/15 07:14:53;;;;;;;14.27;9.38;;;;;;;;;;5012132;28;20068;-58
2021/08/15 07:17:21;;;;;;;16.88;9.90;;;;;;;;;;5012972;28;20157;-58
2021/08/15 07:19:50;;;;;;;19.80;9.52;;;;;;;;;;5013032;28;20054;-58
2021/08/15 07:22:18;;;;;;;13.93;8.93;;;;;;;;;;5012672;28;20861;-58
2021/08/15 07:24:46;;;;;;;18.63;10.80;;;;;;;;;;5012006;28;20170;-58
2021/08/15 07:27:14;;;;;;;15.07;9.50;;;;;;;;;;5012710;28;20161;-59
2021/08/15 07:29:44;;;;;;;17.52;9.30;;;;;;;;;;5012934;28;20137;-58
2021/08/15 07:32:12;;;;;;;16.30;9.35;;;;;;;;;;5012438;28;20461;-58
2021/08/15 07:34:40;;;;;;;15.43;9.23;;;;;;;;;;5011823;28;20069;-59
2021/08/15 07:37:09;;;;;;;16.85;9.88;;;;;;;;;;5012834;28;20107;-58
2021/08/15 07:39:37;;;;;;;13.18;8.73;;;;;;;;;;5012626;28;20052;-58
2021/08/15 07:42:05;;;;;;;13.85;8.23;;;;;;;;;;5012742;28;20512;-58
2021/08/15 07:44:34;;;;;;;16.60;8.20;;;;;;;;;;5012061;28;20457;-58
2021/08/15 07:47:03;;;;;;;13.48;7.47;;;;;;;;;;5013520;28;20133;-58
2021/08/15 07:49:33;;;;;;;15.18;8.13;;;;;;;;;;5012473;28;20092;-58
2021/08/15 07:52:01;;;;;;;9.95;6.78;;;;;;;;;;5012375;28;20089;-58
2021/08/15 07:54:30;;;;;;;12.90;7.30;;;;;;;;;;5011735;28;20109;-58
2021/08/15 07:56:59;;;;;;;13.38;7.53;;;;;;;;;;5012268;28;20095;-58
2021/08/15 07:59:27;;;;;;;12.13;6.70;;;;;;;;;;5011723;28;20481;-58
2021/08/15 08:01:55;;;;;;;13.43;7.32;;;;;;;;;;5011168;28;20133;-58
2021/08/15 08:04:25;;;;;;;13.35;5.68;;;;;;;;;;5011413;28;20462;-59
2021/08/15 08:06:54;;;;;;;11.63;6.57;;;;;;;;;;5012459;28;20133;-58
2021/08/15 08:09:23;;;;;;;11.98;6.68;;;;;;;;;;5011481;28;20148;-60
2021/08/15 08:11:51;;;;;;;10.40;6.55;;;;;;;;;;5011711;28;20050;-58
2021/08/15 08:14:19;;;;;;;9.23;6.55;;;;;;;;;;5011139;28;20129;-59
2021/08/15 08:16:48;;;;;;;13.93;7.03;;;;;;;;;;5011202;28;20129;-58
2021/08/15 08:19:16;;;;;;;15.05;6.88;;;;;;;;;;5011681;28;20053;-58
2021/08/15 08:21:46;;;;;;;10.25;6.68;;;;;;;;;;5011446;28;20045;-58
2021/08/15 08:24:14;;;;;;;8.98;6.38;;;;;;;;;;5011221;28;20096;-58
2021/08/15 08:26:42;;;;;;;12.77;7.00;;;;;;;;;;5011921;28;20432;-58
2021/08/15 08:29:10;;;;;;;10.27;6.35;;;;;;;;;;5011116;28;20053;-58
2021/08/15 08:31:39;;;;;;;9.88;6.38;;;;;;;;;;5011347;28;20170;-58
2021/08/15 08:34:07;;;;;;;9.25;6.03;;;;;;;;;;5011520;28;20084;-58
2021/08/15 08:36:35;;;;;;;13.10;6.63;;;;;;;;;;5012317;28;20045;-58
2021/08/15 08:39:05;;;;;;;12.93;6.57;;;;;;;;;;5011546;28;20479;-59
2021/08/15 08:41:34;;;;;;;11.48;6.55;;;;;;;;;;5011344;28;20418;-59
2021/08/15 08:44:02;;;;;;;12.13;6.38;;;;;;;;;;5011352;28;20050;-58
2021/08/15 08:46:31;;;;;;;9.32;6.20;;;;;;;;;;5012801;28;20245;-58
2021/08/15 08:48:59;;;;;;;10.60;6.63;;;;;;;;;;5012180;28;20045;-58
2021/08/15 08:51:27;;;;;;;11.73;6.18;;;;;;;;;;5010562;28;20136;-58
2021/08/15 08:53:56;;;;;;;14.07;6.57;;;;;;;;;;5010849;28;20140;-58
2021/08/15 08:56:25;;;;;;;9.48;6.05;;;;;;;;;;5011352;28;20144;-59
2021/08/15 08:58:54;;;;;;;11.57;6.30;;;;;;;;;;5011486;28;20056;-58
2021/08/15 09:01:22;;;;;;;12.43;5.70;;;;;;;;;;5011045;28;20049;-58
2021/08/15 09:03:51;;;;;;;10.07;6.03;;;;;;;;;;5010690;28;20054;-58
2021/08/15 09:06:21;;;;;;;11.02;5.97;;;;;;;;;;5011026;28;20046;-58
2021/08/15 09:08:50;;;;;;;13.90;6.20;;;;;;;;;;5011313;28;20049;-58
2021/08/15 09:11:19;;;;;;;10.90;6.13;;;;;;;;;;5010802;28;20049;-59
2021/08/15 09:14:01;;;;;;;9.68;5.65;;;;;;;;;;5010219;28;20156;-58
2021/08/15 09:16:44;;;;;;;12.57;6.63;;;;;;;;;;5011345;28;20052;-58
2021/08/15 09:19:23;;;;;;;12.35;5.85;;;;;;;;;;5010527;28;20042;-58
2021/08/15 09:21:52;;;;;;;9.57;5.63;;;;;;;;;;5010872;28;20137;-58
2021/08/15 09:24:20;;;;;;;11.85;5.82;;;;;;;;;;5010553;28;20042;-58
2021/08/15 09:27:08;;;;;;;9.40;5.85;;;;;;;;;;5011203;28;20058;-58
2021/08/15 09:29:38;;;;;;;11.65;5.57;;;;;;;;;;5010691;28;20052;-58
2021/08/15 09:32:07;;;;;;;11.02;6.10;;;;;;;;;;5011298;28;20057;-59
2021/08/15 09:34:35;;;;;;;10.43;6.18;;;;;;;;;;5011088;28;20058;-58
2021/08/15 09:37:03;;;;;;;14.93;6.28;;;;;;;;;;5010965;28;20046;-58
2021/08/15 09:39:32;;;;;;;8.52;5.70;;;;;;;;;;5011596;28;20048;-58
2021/08/15 09:42:01;;;;;;;11.98;6.35;;;;;;;;;;5010372;28;20242;-58
2021/08/15 09:44:30;;;;;;;12.38;6.25;;;;;;;;;;4991185;28;20077;-58
2021/08/15 09:47:05;;;;;;;11.38;5.63;;;;;;;;;;4991337;28;20086;-58
2021/08/15 09:49:35;;;;;;;9.05;5.97;;;;;;;;;;4991579;28;20046;-58
2021/08/15 09:52:04;;;;;;;8.05;6.03;;;;;;;;;;4991265;28;20093;-58
2021/08/15 09:54:32;;;;;;;10.80;6.32;;;;;;;;;;4990673;28;20051;-58
2021/08/15 09:57:04;;;;;;;9.40;5.72;;;;;;;;;;5004033;28;20050;-58
2021/08/15 09:59:36;;;;;;;10.98;6.00;;;;;;;;;;5010576;28;20077;-59
2021/08/15 10:02:07;;;;;;;10.13;6.07;;;;;;;;;;5010546;28;20116;-58
2021/08/15 10:04:35;;;;;;;10.90;6.18;;;;;;;;;;5014009;28;20044;-58
2021/08/15 10:07:04;;;;;;;10.50;6.82;;;;;;;;;;5014090;28;20045;-59
2021/08/15 10:09:32;;;;;;;8.00;6.10;;;;;;;;;;5014218;28;20153;-58
2021/08/15 10:12:00;;;;;;;9.75;6.38;;;;;;;;;;5013346;28;20056;-59
2021/08/15 10:14:29;;;;;;;10.63;5.93;;;;;;;;;;5013197;28;20050;-58
2021/08/15 10:16:58;;;;;;;11.63;6.22;;;;;;;;;;5013700;28;20504;-59
2021/08/15 10:19:38;;;;;;;10.70;6.05;;;;;;;;;;5013841;28;20096;-59
2021/08/15 10:22:07;;;;;;;8.68;5.78;;;;;;;;;;5013344;28;20057;-59
2021/08/15 10:24:46;;;;;;;12.15;6.10;;;;;;;;;;5013175;28;20132;-58
2021/08/15 10:27:39;;;;;;;10.90;6.63;;;;;;;;;;5013689;28;20057;-58
2021/08/15 10:30:28;;;;;;;9.73;6.10;;;;;;;;;;4999148;28;20054;-59
2021/08/15 10:33:11;;;;;;;9.23;6.35;;;;;;;;;;5013495;28;20784;-59
2021/08/15 10:35:41;;;;;;;8.80;6.50;;;;;;;;;;4993814;28;20061;-58
2021/08/15 10:38:10;;;;;;;11.07;6.43;;;;;;;;;;4993969;28;20429;-58
2021/08/15 10:40:59;;;;;;;9.93;6.32;;;;;;;;;;4994809;28;20121;-59
2021/08/15 10:44:01;;;;;;;11.10;6.15;;;;;;;;;;4993671;28;20088;-59
2021/08/15 10:46:29;;;;;;;8.80;5.63;;;;;;;;;;4901974;29;20059;-58
2021/08/15 10:48:58;;;;;;;9.63;6.05;;;;;;;;;;4916873;29;20130;-59
2021/08/15 10:51:48;;;;;;;10.00;5.90;;;;;;;;;;4970311;28;20553;-58
2021/08/15 10:54:32;;;;;;;9.52;5.78;;;;;;;;;;5012905;28;20069;-58
2021/08/15 10:57:03;;;;;;;10.45;5.35;;;;;;;;;;5012774;28;20056;-59
2021/08/15 10:59:32;;;;;;;7.72;5.53;;;;;;;;;;5012972;28;20100;-59
2021/08/15 11:02:10;;;;;;;8.82;5.65;;;;;;;;;;5012514;28;20347;-59
2021/08/15 11:04:40;;;;;;;9.02;5.65;;;;;;;;;;5011934;28;20104;-59
2021/08/15 11:07:30;;;;;;;9.13;5.75;;;;;;;;;;5011909;28;20526;-59
2021/08/15 11:09:59;;;;;;;11.05;5.97;;;;;;;;;;5012184;28;20060;-59
2021/08/15 11:12:28;;;;;;;11.20;5.53;;;;;;;;;;5012146;28;20577;-58
2021/08/15 11:14:57;;;;;;;9.13;5.28;;;;;;;;;;5012179;28;20058;-58
2021/08/15 11:17:27;;;;;;;10.77;6.10;;;;;;;;;;5012934;28;20077;-59
2021/08/15 11:19:56;;;;;;;11.90;5.63;;;;;;;;;;5012752;28;20137;-58
2021/08/15 11:22:26;;;;;;;11.43;5.55;;;;;;;;;;5012269;28;20081;-59
2021/08/15 11:25:05;;;;;;;8.15;4.75;;;;;;;;;;5011432;28;20069;-59
2021/08/15 11:27:35;;;;;;;8.55;5.70;;;;;;;;;;5012652;28;20050;-58
2021/08/15 11:30:12;;;;;;;9.20;5.38;;;;;;;;;;5012474;28;20453;-59
2021/08/15 11:32:41;;;;;;;9.98;5.47;;;;;;;;;;5012420;28;20149;-58
2021/08/15 11:35:11;;;;;;;10.20;5.88;;;;;;;;;;5012322;28;20100;-58
2021/08/15 11:37:41;;;;;;;10.15;6.10;;;;;;;;;;5012581;28;20068;-59
2021/08/15 11:40:14;;;;;;;10.05;5.10;;;;;;;;;;5012519;28;20053;-59
2021/08/15 11:42:43;;;;;;;8.05;5.30;;;;;;;;;;5012011;28;20050;-59
2021/08/15 11:45:14;;;;;;;14.90;5.60;;;;;;;;;;5011669;28;20133;-59
2021/08/15 11:47:42;;;;;;;12.48;5.57;;;;;;;;;;5011802;28;20498;-59
2021/08/15 11:50:15;;;;;;;8.65;5.32;;;;;;;;;;5011929;28;20052;-58
2021/08/15 11:52:45;;;;;;;8.32;5.28;;;;;;;;;;5011911;28;20072;-59
2021/08/15 11:55:21;;;;;;;10.32;5.07;;;;;;;;;;5011035;28;20096;-59
2021/08/15 11:57:52;;;;;;;14.45;5.70;;;;;;;;;;4992207;28;20137;-59
2021/08/15 12:00:26;;;;;;;8.38;5.63;;;;;;;;;;5011332;28;20490;-59
2021/08/15 12:03:01;;;;;;;9.15;5.78;;;;;;;;;;5010838;28;20053;-58
2021/08/15 12:05:30;;;;;;;9.80;5.63;;;;;;;;;;5010929;28;20086;-58
2021/08/15 12:08:04;;;;;;;7.35;5.00;;;;;;;;;;5011444;28;20080;-59
2021/08/15 12:10:33;;;;;;;9.60;5.70;;;;;;;;;;5011259;28;20053;-58
2021/08/15 12:13:22;;;;;;;8.40;5.47;;;;;;;;;;5011485;28;20288;-58
2021/08/15 12:15:52;;;;;;;8.63;5.10;;;;;;;;;;5010837;28;20073;-58
2021/08/15 12:18:27;;;;;;;15.43;5.57;;;;;;;;;;5011581;28;20176;-59
2021/08/15 12:20:55;;;;;;;10.23;5.75;;;;;;;;;;5011205;28;20053;-58
2021/08/15 12:23:25;;;;;;;10.93;5.63;;;;;;;;;;5011415;28;20077;-58
2021/08/15 12:26:07;;;;;;;10.68;5.10;;;;;;;;;;5009947;28;20054;-58
2021/08/15 12:28:36;;;;;;;13.32;5.68;;;;;;;;;;5011903;28;20046;-58
2021/08/15 12:31:17;;;;;;;8.40;5.47;;;;;;;;;;5011281;28;20046;-59
2021/08/15 12:33:46;;;;;;;12.63;5.80;;;;;;;;;;5010513;28;20057;-58
2021/08/15 12:36:18;;;;;;;11.45;5.53;;;;;;;;;;5010861;28;20053;-59
2021/08/15 12:38:48;;;;;;;8.70;5.25;;;;;;;;;;5011225;28;20212;-58
2021/08/15 12:41:27;;;;;;;9.10;5.50;;;;;;;;;;5010929;28;20410;-58
2021/08/15 12:44:08;;;;;;;10.35;5.75;;;;;;;;;;5010616;28;20163;-58
2021/08/15 12:46:38;;;;;;;8.85;5.85;;;;;;;;;;5011417;28;20457;-58
2021/08/15 12:49:20;;;;;;;7.70;5.30;;;;;;;;;;5011049;28;20050;-59
2021/08/15 12:51:48;;;;;;;9.55;5.47;;;;;;;;;;5012134;28;20062;-58
2021/08/15 12:54:18;;;;;;;8.15;5.65;;;;;;;;;;5010373;28;20077;-58
2021/08/15 12:56:47;;;;;;;9.65;5.15;;;;;;;;;;5010301;28;20412;-58
2021/08/15 12:59:15;;;;;;;8.63;5.72;;;;;;;;;;5010657;28;20081;-58
2021/08/15 13:01:43;;;;;;;7.90;5.38;;;;;;;;;;5010341;28;20129;-59
2021/08/15 13:04:12;;;;;;;9.75;5.15;;;;;;;;;;5009734;28;20042;-59
2021/08/15 13:06:42;;;;;;;7.05;5.35;;;;;;;;;;5010836;28;20144;-58
2021/08/15 13:09:10;;;;;;;10.65;5.70;;;;;;;;;;5014831;28;20129;-59
2021/08/15 13:11:40;;;;;;;9.18;5.32;;;;;;;;;;5017140;28;20479;-58
2021/08/15 13:14:09;;;;;;;10.38;5.38;;;;;;;;;;5016177;28;20050;-59
2021/08/15 13:16:37;;;;;;;12.23;5.55;;;;;;;;;;5016541;28;20046;-58
2021/08/15 13:19:05;;;;;;;9.23;5.70;;;;;;;;;;5011708;28;20050;-58
2021/08/15 13:21:34;;;;;;;10.88;5.38;;;;;;;;;;5010257;28;20150;-58
2021/08/15 13:24:02;;;;;;;9.27;4.57;;;;;;;;;;5009528;28;20406;-58
2021/08/15 13:26:30;;;;;;;7.10;4.43;;;;;;;;;;5010306;28;20046;-59
2021/08/15 13:29:00;;;;;;;10.10;4.90;;;;;;;;;;5010539;28;20081;-58
2021/08/15 13:31:28;;;;;;;10.07;5.05;;;;;;;;;;5010178;28;20136;-58
2021/08/15 13:33:56;;;;;;;8.95;5.20;;;;;;;;;;5010225;28;20512;-58
2021/08/15 13:36:25;;;;;;;9.90;5.28;;;;;;;;;;5012176;28;20058;-58
2021/08/15 13:38:53;;;;;;;9.55;5.20;;;;;;;;;;5014197;28;20050;-58
2021/08/15 13:41:21;;;;;;;8.50;4.72;;;;;;;;;;5013800;28;20141;-58
2021/08/15 13:43:50;;;;;;;7.63;5.05;;;;;;;;;;5013540;28;20050;-58
2021/08/15 13:46:19;;;;;;;8.90;4.93;;;;;;;;;;5013921;28;20085;-58
2021/08/15 13:48:48;;;;;;;6.78;4.57;;;;;;;;;;5014287;28;20069;-58
2021/08/15 13:51:16;;;;;;;6.63;4.63;;;;;;;;;;5014454;28;20137;-58
2021/08/15 13:53:44;;;;;;;6.82;4.45;;;;;;;;;;5013112;28;20517;-59
2021/08/15 13:56:13;;;;;;;9.05;5.18;;;;;;;;;;5013229;28;20443;-59
2021/08/15 13:58:41;;;;;;;7.45;4.85;;;;;;;;;;5014424;28;20132;-59
2021/08/15 14:01:09;;;;;;;9.02;5.07;;;;;;;;;;5014341;28;20046;-59
2021/08/15 14:03:40;;;;;;;8.90;5.50;;;;;;;;;;5012133;28;20061;-58
2021/08/15 14:06:08;;;;;;;9.15;5.50;;;;;;;;;;4994131;28;20161;-59
2021/08/15 14:08:37;;;;;;;10.57;5.55;;;;;;;;;;4994387;28;20184;-58
2021/08/15 14:11:05;;;;;;;7.75;5.10;;;;;;;;;;4993701;28;20407;-59
2021/08/15 14:13:34;;;;;;;9.50;4.90;;;;;;;;;;4994011;28;20055;-58
2021/08/15 14:16:03;;;;;;;7.78;4.63;;;;;;;;;;5013232;28;20129;-58
2021/08/15 14:18:33;;;;;;;8.38;5.07;;;;;;;;;;5013546;28;20133;-58
2021/08/15 14:21:03;;;;;;;8.00;5.38;;;;;;;;;;5013287;28;20050;-59
2021/08/15 14:23:32;;;;;;;8.60;5.53;;;;;;;;;;5013053;28;20093;-59
2021/08/15 14:26:00;;;;;;;6.38;5.13;;;;;;;;;;5013419;28;20088;-58
2021/08/15 14:28:28;;;;;;;6.85;5.18;;;;;;;;;;5013366;28;20133;-58
2021/08/15 14:30:57;;;;;;;9.73;5.28;;;;;;;;;;5013480;28;20056;-59
2021/08/15 14:33:26;;;;;;;13.65;5.43;;;;;;;;;;5011757;28;20053;-58
2021/08/15 14:35:55;;;;;;;9.10;5.47;;;;;;;;;;5012940;28;20053;-58
2021/08/15 14:38:25;;;;;;;11.95;6.10;;;;;;;;;;5013979;28;20088;-59
2021/08/15 14:40:53;;;;;;;10.18;5.18;;;;;;;;;;5013519;28;20053;-58
2021/08/15 14:43:21;;;;;;;7.75;4.80;;;;;;;;;;5013784;28;20141;-59
2021/08/15 14:45:50;;;;;;;12.60;6.28;;;;;;;;;;5012978;28;20077;-59